createdAt,value
2022-09-22T00:01:08.076Z,7.75
2022-09-22T00:03:38.129Z,7.60
2022-09-22T00:06:15.227Z,6.95
2022-09-22T00:08:44.786Z,8.02
2022-09-22T00:11:19.211Z,8.00
2022-09-22T00:13:51.294Z,7.50
2022-09-22T00:16:20.936Z,7.47
2022-09-22T00:18:47.507Z,7.97
2022-09-22T00:21:19.229Z,9.50
2022-09-22T00:23:47.160Z,8.05
2022-09-22T00:26:16.447Z,8.63
2022-09-22T00:28:45.212Z,6.50
2022-09-22T00:31:16.950Z,6.60
2022-09-22T00:33:46.260Z,8.43
2022-09-22T00:36:13.997Z,7.70
2022-09-22T00:38:41.147Z,7.80
2022-09-22T00:41:10.911Z,8.55
2022-09-22T00:43:38.850Z,6.78
2022-09-22T00:46:08.274Z,8.55
2022-09-22T00:48:44.276Z,8.40
2022-09-22T00:51:13.580Z,8.68
2022-09-22T00:53:40.239Z,6.47
2022-09-22T00:56:15.442Z,7.15
2022-09-22T00:58:50.613Z,9.13
2022-09-22T01:01:17.143Z,7.75
2022-09-22T01:03:43.905Z,8.43
2022-09-22T01:06:14.714Z,9.02
2022-09-22T01:08:43.581Z,7.43
2022-09-22T01:11:13.109Z,9.05
2022-09-22T01:13:39.506Z,9.95
2022-09-22T01:16:20.890Z,10.82
2022-09-22T01:19:15.447Z,8.38
2022-09-22T01:22:03.936Z,8.55
2022-09-22T01:24:56.498Z,9.52
2022-09-22T01:27:55.463Z,8.13
2022-09-22T01:30:24.495Z,7.82
2022-09-22T01:33:00.049Z,7.13
2022-09-22T01:35:37.009Z,7.30
2022-09-22T01:38:27.724Z,8.80
2022-09-22T01:41:08.205Z,8.75
2022-09-22T01:43:51.205Z,7.57
2022-09-22T01:46:32.190Z,7.77
2022-09-22T01:49:02.521Z,7.15
2022-09-22T01:51:37.278Z,6.35
2022-09-22T01:54:16.693Z,7.50
2022-09-22T01:56:49.483Z,8.70
2022-09-22T01:59:19.104Z,7.90
2022-09-22T02:01:53.909Z,8.30
2022-09-22T02:04:45.191Z,7.95
2022-09-22T02:07:28.711Z,11.10
2022-09-22T02:09:58.329Z,9.77
2022-09-22T02:12:24.813Z,8.05
2022-09-22T02:14:51.361Z,8.25
2022-09-22T02:17:17.818Z,7.35
2022-09-22T02:19:44.506Z,8.82
2022-09-22T02:22:13.842Z,7.13
2022-09-22T02:24:43.785Z,8.30
2022-09-22T02:27:20.445Z,9.30
2022-09-22T02:29:52.265Z,7.70
2022-09-22T02:32:19.821Z,8.02
2022-09-22T02:34:46.763Z,7.38
2022-09-22T02:37:25.757Z,7.28
2022-09-22T02:40:06.024Z,7.85
2022-09-22T02:42:45.207Z,7.05
2022-09-22T02:45:29.121Z,8.32
2022-09-22T02:50:27.598Z,8.57
2022-09-22T02:53:01.238Z,8.75
2022-09-22T02:57:54.474Z,9.68
2022-09-22T03:00:22.403Z,8.10
2022-09-22T03:02:48.962Z,7.70
2022-09-22T03:05:15.613Z,10.63
2022-09-22T03:07:42.127Z,6.70
2022-09-22T03:10:09.212Z,8.00
2022-09-22T03:12:35.717Z,9.23
2022-09-22T03:15:02.422Z,8.90
2022-09-22T03:17:28.894Z,10.27
2022-09-22T03:19:55.332Z,9.15
2022-09-22T03:22:21.774Z,8.32
2022-09-22T03:24:48.239Z,8.40
2022-09-22T03:27:14.975Z,8.18
2022-09-22T03:29:41.448Z,8.95
2022-09-22T03:32:07.883Z,8.88
2022-09-22T03:34:34.622Z,8.63
2022-09-22T03:37:01.049Z,9.50
2022-09-22T03:39:27.594Z,8.82
2022-09-22T03:41:53.997Z,8.88
2022-09-22T03:44:20.506Z,10.02
2022-09-22T03:46:46.992Z,8.23
2022-09-22T03:49:13.503Z,12.13
2022-09-22T03:51:40.321Z,8.57
2022-09-22T03:54:06.898Z,8.18
2022-09-22T03:56:33.556Z,10.07
2022-09-22T03:59:00.310Z,8.50
2022-09-22T04:01:26.816Z,9.65
2022-09-22T04:03:56.474Z,9.25
2022-09-22T04:06:23.030Z,10.45
2022-09-22T04:08:49.568Z,10.05
2022-09-22T04:11:16.075Z,10.82
2022-09-22T04:13:46.202Z,11.07
2022-09-22T04:16:13.587Z,9.57
2022-09-22T04:18:41.672Z,11.25
2022-09-22T04:21:08.653Z,10.95
2022-09-22T04:23:35.881Z,10.00
2022-09-22T04:26:03.183Z,10.63
2022-09-22T04:28:31.822Z,9.30
2022-09-22T04:30:58.937Z,11.15
2022-09-22T04:33:28.573Z,10.68
2022-09-22T04:35:55.085Z,11.13
2022-09-22T04:38:21.569Z,11.18
2022-09-22T04:40:49.598Z,9.70
2022-09-22T04:43:16.129Z,11.18
2022-09-22T04:45:45.753Z,11.50
2022-09-22T04:48:12.254Z,10.18
2022-09-22T04:50:38.709Z,8.82
2022-09-22T04:53:05.841Z,10.30
2022-09-22T04:55:32.481Z,12.15
2022-09-22T04:57:59.038Z,11.13
2022-09-22T05:00:27.915Z,12.05
2022-09-22T05:02:55.351Z,10.23
2022-09-22T05:05:24.464Z,11.82
2022-09-22T05:07:54.876Z,14.38
2022-09-22T05:10:25.110Z,12.20
2022-09-22T05:12:53.523Z,12.02
2022-09-22T05:15:22.005Z,16.55
2022-09-22T05:17:50.738Z,12.07
2022-09-22T05:20:17.869Z,11.35
2022-09-22T05:22:47.524Z,12.30
2022-09-22T05:25:16.383Z,14.40
2022-09-22T05:27:53.622Z,9.98
2022-09-22T05:30:22.523Z,14.85
2022-09-22T05:32:49.517Z,13.15
2022-09-22T05:35:18.747Z,12.30
2022-09-22T05:37:46.846Z,11.07
2022-09-22T05:40:15.028Z,12.25
2022-09-22T05:42:49.996Z,11.45
2022-09-22T05:45:18.270Z,11.35
2022-09-22T05:47:45.102Z,14.85
2022-09-22T05:50:13.471Z,12.93
2022-09-22T05:52:40.151Z,13.85
2022-09-22T05:55:07.142Z,12.88
2022-09-22T05:57:36.664Z,13.40
2022-09-22T06:00:05.857Z,12.00
2022-09-22T06:02:40.282Z,13.93
2022-09-22T06:05:07.046Z,13.55
2022-09-22T06:07:33.770Z,11.43
2022-09-22T06:10:00.293Z,12.27
2022-09-22T06:12:26.833Z,13.18
2022-09-22T06:14:53.450Z,15.00
2022-09-22T06:17:19.918Z,11.75
2022-09-22T06:19:50.102Z,13.88
2022-09-22T06:22:17.955Z,16.13
2022-09-22T06:24:44.895Z,11.23
2022-09-22T06:27:11.521Z,15.77
2022-09-22T06:29:38.004Z,14.77
2022-09-22T06:32:07.979Z,13.05
2022-09-22T06:34:38.143Z,11.68
2022-09-22T06:37:08.598Z,13.65
2022-09-22T06:39:37.758Z,12.95
2022-09-22T06:42:05.431Z,11.90
2022-09-22T06:44:33.010Z,13.05
2022-09-22T06:47:08.411Z,10.57
2022-09-22T06:49:37.192Z,9.65
2022-09-22T06:52:04.030Z,11.65
2022-09-22T06:54:30.497Z,12.43
2022-09-22T06:56:57.009Z,11.15
2022-09-22T06:59:23.500Z,10.27
2022-09-22T07:01:52.854Z,11.88
2022-09-22T07:04:20.005Z,8.93
2022-09-22T07:06:49.734Z,9.77
2022-09-22T07:09:16.579Z,9.93
2022-09-22T07:11:43.805Z,8.80
2022-09-22T07:14:10.371Z,9.38
2022-09-22T07:16:37.474Z,7.40
2022-09-22T07:19:05.549Z,8.75
2022-09-22T07:21:36.436Z,7.70
2022-09-22T07:24:04.289Z,9.23
2022-09-22T07:26:33.506Z,9.82
2022-09-22T07:29:06.090Z,7.03
2022-09-22T07:31:34.737Z,8.90
2022-09-22T07:34:01.541Z,8.25
2022-09-22T07:36:30.539Z,7.18
2022-09-22T07:39:02.967Z,6.22
2022-09-22T07:41:31.549Z,9.75
2022-09-22T07:44:23.028Z,7.97
2022-09-22T07:46:49.526Z,7.53
2022-09-22T07:49:17.632Z,6.50
2022-09-22T07:51:44.147Z,5.65
2022-09-22T07:54:10.859Z,6.85
2022-09-22T07:56:41.959Z,8.20
2022-09-22T07:59:10.933Z,7.78
2022-09-22T08:01:42.003Z,6.85
2022-09-22T08:04:12.336Z,7.00
2022-09-22T08:06:38.869Z,10.18
2022-09-22T08:09:06.937Z,8.07
2022-09-22T08:11:33.880Z,6.82
2022-09-22T08:14:10.529Z,6.95
2022-09-22T08:16:39.910Z,5.65
2022-09-22T08:19:12.467Z,6.53
2022-09-22T08:21:48.320Z,4.40
2022-09-22T08:24:21.186Z,4.72
2022-09-22T08:26:50.088Z,7.63
2022-09-22T08:29:20.296Z,5.18
2022-09-22T08:31:47.766Z,4.30
2022-09-22T08:34:16.951Z,5.22
2022-09-22T08:36:47.038Z,5.38
2022-09-22T08:39:14.624Z,4.40
2022-09-22T08:41:50.339Z,6.03
2022-09-22T08:44:26.017Z,4.82
2022-09-22T08:46:54.696Z,5.57
2022-09-22T08:49:43.504Z,5.22
2022-09-22T08:52:38.817Z,5.63
2022-09-22T08:55:11.001Z,6.63
2022-09-22T08:58:00.384Z,5.10
2022-09-22T09:00:32.566Z,4.85
2022-09-22T09:03:43.089Z,4.78
2022-09-22T09:06:18.661Z,4.03
2022-09-22T09:09:20.570Z,3.55
2022-09-22T09:12:06.755Z,3.45
2022-09-22T09:14:51.307Z,4.40
2022-09-22T09:17:39.662Z,4.13
2022-09-22T09:20:17.505Z,4.25
2022-09-22T09:22:50.724Z,3.15
2022-09-22T09:25:25.450Z,4.50
2022-09-22T09:28:00.905Z,4.70
2022-09-22T09:30:34.035Z,3.10
2022-09-22T09:33:04.653Z,3.20
2022-09-22T09:35:45.637Z,3.28
2022-09-22T09:38:15.576Z,3.80
2022-09-22T09:40:42.762Z,4.55
2022-09-22T09:43:10.487Z,3.65
2022-09-22T09:45:55.711Z,5.80
2022-09-22T09:48:43.203Z,4.30
2022-09-22T09:51:14.518Z,3.95
2022-09-22T09:53:46.025Z,4.00
2022-09-22T09:56:29.986Z,5.28
2022-09-22T09:59:20.034Z,3.97
2022-09-22T10:01:50.614Z,3.55
2022-09-22T10:04:37.677Z,4.85
2022-09-22T10:07:16.689Z,4.47
2022-09-22T10:09:44.206Z,4.35
2022-09-22T10:12:31.144Z,3.10
2022-09-22T10:14:59.457Z,3.72
2022-09-22T10:17:33.909Z,3.72
2022-09-22T10:20:31.627Z,3.95
2022-09-22T10:23:21.481Z,3.83
2022-09-22T10:25:49.565Z,4.32
2022-09-22T10:28:21.531Z,4.20
2022-09-22T10:31:05.776Z,6.07
2022-09-22T10:33:33.403Z,3.97
2022-09-22T10:36:07.839Z,4.28
2022-09-22T10:41:17.962Z,4.40
2022-09-22T10:43:50.053Z,5.57
2022-09-22T10:47:01.509Z,4.30
2022-09-22T10:49:42.722Z,4.90
2022-09-22T10:52:19.681Z,3.10
2022-09-22T10:54:49.024Z,3.08
2022-09-22T10:57:31.356Z,3.47
2022-09-22T11:00:19.255Z,4.00
2022-09-22T11:02:57.892Z,3.33
2022-09-22T11:05:53.365Z,3.55
2022-09-22T11:08:39.297Z,5.50
2022-09-22T11:11:39.970Z,4.32
2022-09-22T11:14:25.164Z,3.38
2022-09-22T11:17:23.383Z,4.35
2022-09-22T11:20:02.187Z,3.33
2022-09-22T11:22:51.050Z,3.17
2022-09-22T11:25:37.270Z,3.20
2022-09-22T11:28:03.697Z,3.55
2022-09-22T11:30:49.385Z,3.30
2022-09-22T11:33:34.397Z,3.20
2022-09-22T11:36:23.105Z,3.20
2022-09-22T11:39:00.409Z,2.97
2022-09-22T11:42:00.133Z,2.97
2022-09-22T11:44:26.575Z,3.22
2022-09-22T11:47:30.866Z,4.28
2022-09-22T11:50:20.306Z,3.08
2022-09-22T11:53:11.876Z,3.55
2022-09-22T11:55:48.964Z,4.05
2022-09-22T11:58:19.505Z,3.75
2022-09-22T12:01:07.452Z,3.15
2022-09-22T12:03:43.407Z,4.65
2022-09-22T12:06:15.194Z,4.70
2022-09-22T12:11:28.223Z,3.05
2022-09-22T12:13:56.896Z,7.50
2022-09-22T12:16:33.522Z,20.25
2022-09-22T12:19:21.649Z,10.57
2022-09-22T12:21:58.131Z,2.67
2022-09-22T12:24:24.812Z,2.00
2022-09-22T12:26:51.790Z,2.90
2022-09-22T12:29:30.129Z,3.95
2022-09-22T12:31:59.090Z,3.60
2022-09-22T12:34:34.982Z,2.85
2022-09-22T12:37:25.333Z,4.40
2022-09-22T12:39:51.890Z,2.65
2022-09-22T12:42:37.884Z,2.92
2022-09-22T12:45:13.427Z,3.33
2022-09-22T12:47:41.919Z,5.05
2022-09-22T12:50:23.960Z,2.05
2022-09-22T12:52:50.663Z,2.53
2022-09-22T12:55:29.369Z,3.33
2022-09-22T12:58:01.110Z,2.33
2022-09-22T13:00:39.565Z,2.80
2022-09-22T13:03:30.164Z,3.20
2022-09-22T13:06:15.070Z,3.95
2022-09-22T13:08:44.608Z,2.83
2022-09-22T13:11:11.758Z,3.30
2022-09-22T13:13:43.669Z,3.67
2022-09-22T13:16:16.184Z,3.35
2022-09-22T13:18:46.065Z,3.55
2022-09-22T13:21:12.474Z,4.25
2022-09-22T13:24:00.409Z,3.55
2022-09-22T13:26:38.867Z,3.33
2022-09-22T13:29:12.927Z,3.55
2022-09-22T13:31:45.210Z,2.97
2022-09-22T13:34:31.617Z,3.83
2022-09-22T13:37:07.840Z,3.10
2022-09-22T13:39:47.759Z,4.28
2022-09-22T13:42:19.287Z,3.58
2022-09-22T13:45:08.462Z,5.28
2022-09-22T13:47:35.883Z,4.60
2022-09-22T13:50:06.878Z,3.60
2022-09-22T13:52:36.079Z,4.93
2022-09-22T13:55:14.688Z,3.55
2022-09-22T13:57:42.046Z,3.40
2022-09-22T14:00:20.411Z,3.13
2022-09-22T14:02:46.957Z,3.53
2022-09-22T14:05:21.469Z,3.65
2022-09-22T14:08:10.704Z,2.88
2022-09-22T14:10:38.081Z,3.17
2022-09-22T14:13:04.574Z,3.53
2022-09-22T14:15:37.048Z,4.20
2022-09-22T14:18:16.916Z,2.90
2022-09-22T14:20:45.226Z,4.60
2022-09-22T14:23:29.924Z,3.58
2022-09-22T14:26:01.455Z,4.22
2022-09-22T14:28:41.177Z,3.63
2022-09-22T14:31:23.122Z,2.75
2022-09-22T14:33:49.869Z,3.55
2022-09-22T14:36:21.261Z,4.20
2022-09-22T14:39:04.904Z,3.42
2022-09-22T14:41:37.373Z,10.35
2022-09-22T14:44:42.734Z,2.97
2022-09-22T14:47:24.336Z,5.07
2022-09-22T14:50:05.973Z,3.70
2022-09-22T14:52:36.675Z,2.90
2022-09-22T14:55:16.987Z,4.53
2022-09-22T14:57:47.400Z,3.33
2022-09-22T15:00:34.328Z,3.78
2022-09-22T15:03:05.967Z,3.17
2022-09-22T15:05:34.209Z,3.33
2022-09-22T15:08:01.485Z,3.03
2022-09-22T15:10:32.944Z,3.58
2022-09-22T15:13:34.882Z,3.15
2022-09-22T15:16:01.664Z,2.70
2022-09-22T15:18:30.798Z,3.72
2022-09-22T15:21:13.172Z,3.40
2022-09-22T15:23:46.968Z,4.38
2022-09-22T15:26:27.238Z,4.15
2022-09-22T15:28:55.580Z,5.47
2022-09-22T15:31:26.622Z,3.33
2022-09-22T15:34:01.387Z,5.57
2022-09-22T15:36:31.964Z,3.72
2022-09-22T15:39:01.126Z,3.25
2022-09-22T15:41:27.961Z,3.67
2022-09-22T15:43:54.740Z,2.95
2022-09-22T15:46:28.473Z,3.22
2022-09-22T15:49:06.294Z,2.95
2022-09-22T15:51:33.399Z,5.25
2022-09-22T15:54:01.396Z,3.42
2022-09-22T15:56:29.598Z,3.30
2022-09-22T15:58:59.343Z,2.80
2022-09-22T16:01:28.053Z,2.63
2022-09-22T16:03:54.614Z,2.72
2022-09-22T16:06:21.623Z,3.30
2022-09-22T16:08:52.219Z,3.50
2022-09-22T16:11:30.346Z,3.42
2022-09-22T16:14:00.609Z,4.00
2022-09-22T16:16:29.412Z,5.10
2022-09-22T16:18:57.278Z,5.05
2022-09-22T16:21:26.527Z,5.57
2022-09-22T16:24:00.514Z,3.42
2022-09-22T16:26:31.337Z,3.42
2022-09-22T16:28:58.882Z,3.25
2022-09-22T16:31:25.767Z,4.32
2022-09-22T16:33:54.541Z,5.25
2022-09-22T16:36:21.906Z,3.63
2022-09-22T16:38:51.204Z,4.68
2022-09-22T16:41:21.989Z,19.60
2022-09-22T16:43:48.758Z,78.75
2022-09-22T16:46:31.211Z,26.20
2022-09-22T16:49:05.935Z,15.85
2022-09-22T16:51:35.473Z,6.80
2022-09-22T16:54:03.354Z,7.43
2022-09-22T16:56:32.759Z,6.25
2022-09-22T16:59:03.141Z,5.97
2022-09-22T17:01:31.372Z,4.20
2022-09-22T17:03:59.030Z,6.15
2022-09-22T17:06:26.478Z,5.53
2022-09-22T17:08:55.002Z,5.80
2022-09-22T17:11:29.671Z,6.20
2022-09-22T17:14:00.861Z,5.80
2022-09-22T17:16:34.103Z,7.35
2022-09-22T17:19:05.714Z,9.27
2022-09-22T17:21:36.563Z,13.82
2022-09-22T17:24:05.735Z,12.80
2022-09-22T17:26:49.961Z,10.60
2022-09-22T17:29:24.926Z,7.72
2022-09-22T17:31:56.449Z,6.28
2022-09-22T17:34:24.676Z,5.75
2022-09-22T17:36:52.434Z,6.57
2022-09-22T17:39:18.918Z,4.50
2022-09-22T17:41:47.057Z,4.68
2022-09-22T17:44:20.865Z,5.60
2022-09-22T17:47:10.898Z,5.75
2022-09-22T17:49:57.043Z,5.25
2022-09-22T17:52:29.691Z,5.03
2022-09-22T17:55:07.059Z,6.43
2022-09-22T17:57:41.329Z,4.90
2022-09-22T18:00:21.829Z,4.57
2022-09-22T18:02:50.001Z,5.55
2022-09-22T18:05:19.662Z,6.53
2022-09-22T18:07:47.791Z,7.47
2022-09-22T18:10:17.581Z,3.80
2022-09-22T18:12:44.308Z,6.13
2022-09-22T18:15:15.024Z,5.75
2022-09-22T18:17:45.614Z,4.72
2022-09-22T18:20:14.534Z,5.25
2022-09-22T18:22:41.802Z,4.85
2022-09-22T18:25:10.415Z,5.00
2022-09-22T18:27:38.090Z,4.72
2022-09-22T18:30:05.123Z,5.50
2022-09-22T18:32:32.988Z,4.75
2022-09-22T18:34:59.641Z,6.05
2022-09-22T18:37:26.925Z,5.13
2022-09-22T18:39:53.908Z,5.80
2022-09-22T18:42:24.128Z,5.25
2022-09-22T18:44:52.581Z,6.28
2022-09-22T18:47:21.475Z,6.68
2022-09-22T18:49:51.267Z,5.68
2022-09-22T18:52:24.314Z,7.53
2022-09-22T18:54:53.782Z,6.15
2022-09-22T18:57:28.651Z,5.80
2022-09-22T18:59:57.735Z,6.20
2022-09-22T19:02:24.840Z,5.60
2022-09-22T19:04:51.713Z,5.25
2022-09-22T19:07:41.526Z,5.53
2022-09-22T19:10:12.226Z,7.03
2022-09-22T19:12:42.716Z,8.15
2022-09-22T19:15:16.458Z,9.43
2022-09-22T19:17:44.733Z,9.50
2022-09-22T19:20:17.357Z,10.35
2022-09-22T19:22:44.445Z,9.25
2022-09-22T19:25:11.205Z,8.85
2022-09-22T19:27:39.730Z,11.55
2022-09-22T19:30:07.362Z,12.77
2022-09-22T19:32:33.954Z,14.23
2022-09-22T19:35:00.562Z,14.43
2022-09-22T19:37:29.109Z,13.57
2022-09-22T19:39:55.753Z,19.00
2022-09-22T19:42:22.427Z,22.52
2022-09-22T19:44:48.921Z,19.08
2022-09-22T19:47:15.958Z,16.27
2022-09-22T19:49:42.593Z,13.98
2022-09-22T19:52:09.340Z,15.20
2022-09-22T19:54:35.874Z,16.25
2022-09-22T19:57:02.493Z,15.57
2022-09-22T19:59:29.554Z,15.23
2022-09-22T20:01:56.161Z,14.15
2022-09-22T20:04:23.389Z,15.25
2022-09-22T20:06:53.460Z,14.93
2022-09-22T20:09:20.101Z,15.25
2022-09-22T20:11:49.733Z,17.60
2022-09-22T20:14:23.804Z,15.68
2022-09-22T20:16:52.098Z,15.38
2022-09-22T20:19:19.319Z,15.98
2022-09-22T20:21:46.478Z,15.88
2022-09-22T20:24:15.857Z,15.60
2022-09-22T20:26:43.396Z,15.48
2022-09-22T20:29:10.948Z,18.52
2022-09-22T20:31:37.549Z,16.00
2022-09-22T20:34:05.711Z,14.70
2022-09-22T20:36:37.097Z,16.65
2022-09-22T20:39:04.554Z,16.58
2022-09-22T20:41:32.581Z,15.30
2022-09-22T20:43:59.277Z,15.57
2022-09-22T20:46:25.883Z,17.63
2022-09-22T20:48:55.409Z,16.58
2022-09-22T20:51:25.303Z,13.40
2022-09-22T20:53:51.806Z,14.77
2022-09-22T20:56:18.293Z,13.43
2022-09-22T20:58:46.209Z,15.27
2022-09-22T21:01:15.260Z,14.02
2022-09-22T21:03:42.084Z,14.88
2022-09-22T21:06:11.219Z,16.13
2022-09-22T21:08:57.975Z,14.30
2022-09-22T21:11:25.035Z,13.90
2022-09-22T21:13:53.952Z,12.90
2022-09-22T21:16:20.421Z,14.93
2022-09-22T21:18:51.672Z,14.68
2022-09-22T21:21:20.487Z,14.98
2022-09-22T21:23:50.421Z,15.25
2022-09-22T21:26:18.449Z,16.23
2022-09-22T21:28:48.054Z,14.32
2022-09-22T21:31:14.752Z,14.90
2022-09-22T21:33:41.769Z,14.48
2022-09-22T21:36:15.413Z,14.45
2022-09-22T21:41:11.429Z,14.45
2022-09-22T21:43:38.430Z,13.10
2022-09-22T21:46:13.418Z,12.95
2022-09-22T21:48:40.197Z,12.02
2022-09-22T21:51:14.645Z,12.35
2022-09-22T21:53:44.086Z,11.70
2022-09-22T21:56:12.700Z,11.65
2022-09-22T21:58:41.771Z,15.65
2022-09-22T22:01:10.581Z,13.70
2022-09-22T22:03:42.118Z,11.77
2022-09-22T22:06:15.911Z,12.45
2022-09-22T22:08:47.307Z,13.27
2022-09-22T22:11:22.738Z,10.43
2022-09-22T22:13:52.181Z,10.52
2022-09-22T22:16:25.214Z,11.35
2022-09-22T22:18:52.167Z,12.95
2022-09-22T22:21:22.671Z,13.20
2022-09-22T22:23:54.639Z,10.43
2022-09-22T22:26:23.974Z,14.13
2022-09-22T22:28:53.174Z,12.80
2022-09-22T22:31:22.860Z,11.55
2022-09-22T22:33:49.982Z,8.80
2022-09-22T22:36:18.533Z,11.05
2022-09-22T22:38:45.402Z,11.43
2022-09-22T22:41:14.753Z,12.45
2022-09-22T22:43:42.441Z,13.90
2022-09-22T22:46:10.509Z,10.48
2022-09-22T22:48:37.603Z,9.38
2022-09-22T22:51:09.193Z,11.23
2022-09-22T22:53:36.035Z,10.80
2022-09-22T22:56:05.640Z,9.60
2022-09-22T22:58:35.374Z,11.27
2022-09-22T23:01:15.206Z,11.07
2022-09-22T23:03:44.260Z,14.20
2022-09-22T23:06:16.126Z,12.07
2022-09-22T23:08:43.833Z,11.40
2022-09-22T23:11:16.885Z,12.25
2022-09-22T23:13:51.847Z,10.20
2022-09-22T23:16:24.354Z,11.93
2022-09-22T23:18:52.582Z,11.00
2022-09-22T23:21:21.117Z,10.70
2022-09-22T23:23:49.460Z,10.48
2022-09-22T23:26:17.615Z,10.63
2022-09-22T23:28:44.459Z,12.23
2022-09-22T23:31:14.170Z,10.00
2022-09-22T23:33:43.138Z,11.35
2022-09-22T23:36:13.610Z,11.30
2022-09-22T23:38:40.613Z,10.82
2022-09-22T23:41:08.738Z,11.00
2022-09-22T23:43:35.187Z,13.38
2022-09-22T23:46:04.477Z,13.02
2022-09-22T23:48:32.206Z,12.43
2022-09-22T23:50:59.252Z,11.32
2022-09-22T23:53:29.654Z,13.27
2022-09-22T23:55:56.179Z,10.23
2022-09-22T23:58:22.682Z,12.32
